sensor_id;sensor_type;location;lat;lon;timestamp;P1;durP1;ratioP1;P2;durP2;ratioP2
59788;SDS011;47353;51.614;5.530;2024-02-21T00:01:27;24.92;;;11.18;;
59788;SDS011;47353;51.614;5.530;2024-02-21T00:03:52;23.50;;;12.15;;
59788;SDS011;47353;51.614;5.530;2024-02-21T00:06:18;22.50;;;11.68;;
59788;SDS011;47353;51.614;5.530;2024-02-21T00:08:43;22.55;;;10.38;;
59788;SDS011;47353;51.614;5.530;2024-02-21T00:11:09;22.13;;;10.77;;
59788;SDS011;47353;51.614;5.530;2024-02-21T00:13:34;24.92;;;11.35;;
59788;SDS011;47353;51.614;5.530;2024-02-21T00:16:00;21.67;;;11.15;;
59788;SDS011;47353;51.614;5.530;2024-02-21T00:18:26;26.25;;;11.48;;
59788;SDS011;47353;51.614;5.530;2024-02-21T00:20:51;22.33;;;11.02;;
59788;SDS011;47353;51.614;5.530;2024-02-21T00:23:16;20.65;;;10.98;;
59788;SDS011;47353;51.614;5.530;2024-02-21T00:25:42;30.23;;;12.15;;
59788;SDS011;47353;51.614;5.530;2024-02-21T00:28:07;23.75;;;11.93;;
59788;SDS011;47353;51.614;5.530;2024-02-21T00:30:32;28.17;;;11.55;;
59788;SDS011;47353;51.614;5.530;2024-02-21T00:32:58;25.25;;;11.68;;
59788;SDS011;47353;51.614;5.530;2024-02-21T00:35:24;18.92;;;10.73;;
59788;SDS011;47353;51.614;5.530;2024-02-21T00:37:49;22.67;;;10.40;;
59788;SDS011;47353;51.614;5.530;2024-02-21T00:40:15;20.58;;;10.15;;
59788;SDS011;47353;51.614;5.530;2024-02-21T00:42:45;22.20;;;11.10;;
59788;SDS011;47353;51.614;5.530;2024-02-21T00:45:11;23.30;;;10.50;;
59788;SDS011;47353;51.614;5.530;2024-02-21T00:47:36;21.00;;;10.73;;
59788;SDS011;47353;51.614;5.530;2024-02-21T00:50:02;20.90;;;10.77;;
59788;SDS011;47353;51.614;5.530;2024-02-21T00:52:27;26.10;;;11.48;;
59788;SDS011;47353;51.614;5.530;2024-02-21T00:54:53;26.80;;;11.80;;
59788;SDS011;47353;51.614;5.530;2024-02-21T00:57:18;21.00;;;10.50;;
59788;SDS011;47353;51.614;5.530;2024-02-21T00:59:43;21.92;;;11.55;;
59788;SDS011;47353;51.614;5.530;2024-02-21T01:02:09;22.77;;;10.43;;
59788;SDS011;47353;51.614;5.530;2024-02-21T01:04:34;23.73;;;11.32;;
59788;SDS011;47353;51.614;5.530;2024-02-21T01:07:00;23.17;;;10.43;;
59788;SDS011;47353;51.614;5.530;2024-02-21T01:09:25;22.02;;;10.27;;
59788;SDS011;47353;51.614;5.530;2024-02-21T01:11:51;20.10;;;10.02;;
59788;SDS011;47353;51.614;5.530;2024-02-21T01:14:16;23.80;;;10.43;;
59788;SDS011;47353;51.614;5.530;2024-02-21T01:16:41;20.13;;;10.32;;
59788;SDS011;47353;51.614;5.530;2024-02-21T01:19:07;18.33;;;9.93;;
59788;SDS011;47353;51.614;5.530;2024-02-21T01:21:32;26.15;;;11.30;;
59788;SDS011;47353;51.614;5.530;2024-02-21T01:23:57;17.50;;;9.80;;
59788;SDS011;47353;51.614;5.530;2024-02-21T01:26:23;24.05;;;10.43;;
59788;SDS011;47353;51.614;5.530;2024-02-21T01:28:48;21.17;;;9.93;;
59788;SDS011;47353;51.614;5.530;2024-02-21T01:31:14;20.60;;;9.93;;
59788;SDS011;47353;51.614;5.530;2024-02-21T01:33:40;21.95;;;10.10;;
59788;SDS011;47353;51.614;5.530;2024-02-21T01:36:06;18.75;;;8.55;;
59788;SDS011;47353;51.614;5.530;2024-02-21T01:38:32;19.50;;;9.10;;
59788;SDS011;47353;51.614;5.530;2024-02-21T01:40:59;20.75;;;9.70;;
59788;SDS011;47353;51.614;5.530;2024-02-21T01:43:24;19.02;;;9.15;;
59788;SDS011;47353;51.614;5.530;2024-02-21T01:45:50;20.08;;;9.10;;
59788;SDS011;47353;51.614;5.530;2024-02-21T01:48:23;15.45;;;8.50;;
59788;SDS011;47353;51.614;5.530;2024-02-21T01:50:50;19.08;;;8.80;;
59788;SDS011;47353;51.614;5.530;2024-02-21T01:53:16;18.05;;;8.27;;
59788;SDS011;47353;51.614;5.530;2024-02-21T01:55:46;16.80;;;8.55;;
59788;SDS011;47353;51.614;5.530;2024-02-21T01:58:14;21.95;;;8.40;;
59788;SDS011;47353;51.614;5.530;2024-02-21T02:00:44;17.92;;;8.70;;
59788;SDS011;47353;51.614;5.530;2024-02-21T02:03:11;18.42;;;8.70;;
59788;SDS011;47353;51.614;5.530;2024-02-21T02:05:43;20.20;;;8.45;;
59788;SDS011;47353;51.614;5.530;2024-02-21T02:08:09;17.48;;;8.02;;
59788;SDS011;47353;51.614;5.530;2024-02-21T02:10:35;16.85;;;7.80;;
59788;SDS011;47353;51.614;5.530;2024-02-21T02:13:00;20.88;;;8.27;;
59788;SDS011;47353;51.614;5.530;2024-02-21T02:15:26;15.57;;;8.00;;
59788;SDS011;47353;51.614;5.530;2024-02-21T02:17:51;18.60;;;7.90;;
59788;SDS011;47353;51.614;5.530;2024-02-21T02:20:17;15.77;;;8.05;;
59788;SDS011;47353;51.614;5.530;2024-02-21T02:22:42;15.82;;;8.15;;
59788;SDS011;47353;51.614;5.530;2024-02-21T02:25:09;17.92;;;8.13;;
59788;SDS011;47353;51.614;5.530;2024-02-21T02:27:41;17.38;;;7.38;;
59788;SDS011;47353;51.614;5.530;2024-02-21T02:30:09;14.13;;;7.35;;
59788;SDS011;47353;51.614;5.530;2024-02-21T02:32:36;16.23;;;7.43;;
59788;SDS011;47353;51.614;5.530;2024-02-21T02:35:01;16.33;;;7.70;;
59788;SDS011;47353;51.614;5.530;2024-02-21T02:37:26;18.33;;;7.45;;
59788;SDS011;47353;51.614;5.530;2024-02-21T02:39:52;14.60;;;7.25;;
59788;SDS011;47353;51.614;5.530;2024-02-21T02:42:17;19.90;;;7.30;;
59788;SDS011;47353;51.614;5.530;2024-02-21T02:44:43;15.27;;;7.05;;
59788;SDS011;47353;51.614;5.530;2024-02-21T02:47:08;16.67;;;7.38;;
59788;SDS011;47353;51.614;5.530;2024-02-21T02:49:34;13.50;;;6.90;;
59788;SDS011;47353;51.614;5.530;2024-02-21T02:51:59;19.55;;;7.10;;
59788;SDS011;47353;51.614;5.530;2024-02-21T02:54:25;13.98;;;6.80;;
59788;SDS011;47353;51.614;5.530;2024-02-21T02:56:50;13.63;;;6.63;;
59788;SDS011;47353;51.614;5.530;2024-02-21T02:59:16;12.80;;;6.88;;
59788;SDS011;47353;51.614;5.530;2024-02-21T03:01:42;13.75;;;7.07;;
59788;SDS011;47353;51.614;5.530;2024-02-21T03:04:07;15.63;;;7.63;;
59788;SDS011;47353;51.614;5.530;2024-02-21T03:06:32;15.50;;;7.20;;
59788;SDS011;47353;51.614;5.530;2024-02-21T03:08:58;15.60;;;6.80;;
59788;SDS011;47353;51.614;5.530;2024-02-21T03:11:25;11.48;;;6.97;;
59788;SDS011;47353;51.614;5.530;2024-02-21T03:13:54;13.88;;;6.57;;
59788;SDS011;47353;51.614;5.530;2024-02-21T03:16:21;15.82;;;6.97;;
59788;SDS011;47353;51.614;5.530;2024-02-21T03:18:47;13.63;;;6.50;;
59788;SDS011;47353;51.614;5.530;2024-02-21T03:21:12;13.80;;;7.03;;
59788;SDS011;47353;51.614;5.530;2024-02-21T03:23:38;13.80;;;6.20;;
59788;SDS011;47353;51.614;5.530;2024-02-21T03:26:03;14.68;;;6.40;;
59788;SDS011;47353;51.614;5.530;2024-02-21T03:28:28;14.45;;;6.97;;
59788;SDS011;47353;51.614;5.530;2024-02-21T03:30:54;12.20;;;6.20;;
59788;SDS011;47353;51.614;5.530;2024-02-21T03:33:20;14.50;;;6.70;;
59788;SDS011;47353;51.614;5.530;2024-02-21T03:35:46;15.98;;;7.00;;
59788;SDS011;47353;51.614;5.530;2024-02-21T03:38:11;13.55;;;6.65;;
59788;SDS011;47353;51.614;5.530;2024-02-21T03:40:36;11.55;;;6.35;;
59788;SDS011;47353;51.614;5.530;2024-02-21T03:43:02;12.52;;;5.70;;
59788;SDS011;47353;51.614;5.530;2024-02-21T03:45:27;10.15;;;6.05;;
59788;SDS011;47353;51.614;5.530;2024-02-21T03:47:52;14.48;;;5.90;;
59788;SDS011;47353;51.614;5.530;2024-02-21T03:50:18;14.02;;;6.45;;
59788;SDS011;47353;51.614;5.530;2024-02-21T03:52:44;14.75;;;6.50;;
59788;SDS011;47353;51.614;5.530;2024-02-21T03:55:09;16.13;;;7.20;;
59788;SDS011;47353;51.614;5.530;2024-02-21T03:57:35;14.45;;;5.82;;
59788;SDS011;47353;51.614;5.530;2024-02-21T04:00:00;10.52;;;6.25;;
59788;SDS011;47353;51.614;5.530;2024-02-21T04:02:25;12.07;;;6.85;;
59788;SDS011;47353;51.614;5.530;2024-02-21T04:04:51;13.27;;;7.07;;
59788;SDS011;47353;51.614;5.530;2024-02-21T04:07:16;14.57;;;6.82;;
59788;SDS011;47353;51.614;5.530;2024-02-21T04:09:42;11.18;;;6.45;;
59788;SDS011;47353;51.614;5.530;2024-02-21T04:12:07;13.35;;;6.75;;
59788;SDS011;47353;51.614;5.530;2024-02-21T04:14:33;13.05;;;6.70;;
59788;SDS011;47353;51.614;5.530;2024-02-21T04:16:59;14.35;;;7.22;;
59788;SDS011;47353;51.614;5.530;2024-02-21T04:19:25;13.77;;;6.63;;
59788;SDS011;47353;51.614;5.530;2024-02-21T04:21:50;14.65;;;6.88;;
59788;SDS011;47353;51.614;5.530;2024-02-21T04:24:16;16.80;;;6.85;;
59788;SDS011;47353;51.614;5.530;2024-02-21T04:26:41;12.35;;;7.30;;
59788;SDS011;47353;51.614;5.530;2024-02-21T04:29:08;12.35;;;7.05;;
59788;SDS011;47353;51.614;5.530;2024-02-21T04:31:34;14.00;;;7.00;;
59788;SDS011;47353;51.614;5.530;2024-02-21T04:33:59;15.82;;;7.78;;
59788;SDS011;47353;51.614;5.530;2024-02-21T04:36:25;14.88;;;7.50;;
59788;SDS011;47353;51.614;5.530;2024-02-21T04:38:50;12.95;;;7.50;;
59788;SDS011;47353;51.614;5.530;2024-02-21T04:41:15;14.90;;;7.18;;
59788;SDS011;47353;51.614;5.530;2024-02-21T04:43:41;14.27;;;7.50;;
59788;SDS011;47353;51.614;5.530;2024-02-21T04:46:06;14.10;;;7.47;;
59788;SDS011;47353;51.614;5.530;2024-02-21T04:48:32;13.60;;;7.65;;
59788;SDS011;47353;51.614;5.530;2024-02-21T04:50:58;14.05;;;7.60;;
59788;SDS011;47353;51.614;5.530;2024-02-21T04:53:23;17.23;;;7.43;;
59788;SDS011;47353;51.614;5.530;2024-02-21T04:55:48;14.02;;;7.25;;
59788;SDS011;47353;51.614;5.530;2024-02-21T04:58:14;11.90;;;6.70;;
59788;SDS011;47353;51.614;5.530;2024-02-21T05:00:39;13.27;;;6.75;;
59788;SDS011;47353;51.614;5.530;2024-02-21T05:03:05;13.20;;;6.82;;
59788;SDS011;47353;51.614;5.530;2024-02-21T05:05:30;14.15;;;7.43;;
59788;SDS011;47353;51.614;5.530;2024-02-21T05:07:56;12.70;;;6.97;;
59788;SDS011;47353;51.614;5.530;2024-02-21T05:10:21;17.05;;;7.22;;
59788;SDS011;47353;51.614;5.530;2024-02-21T05:12:46;15.27;;;7.15;;
59788;SDS011;47353;51.614;5.530;2024-02-21T05:15:12;15.23;;;7.53;;
59788;SDS011;47353;51.614;5.530;2024-02-21T05:17:37;15.00;;;7.85;;
59788;SDS011;47353;51.614;5.530;2024-02-21T05:20:03;14.45;;;8.00;;
59788;SDS011;47353;51.614;5.530;2024-02-21T05:22:28;14.93;;;8.05;;
59788;SDS011;47353;51.614;5.530;2024-02-21T05:24:54;18.38;;;9.10;;
59788;SDS011;47353;51.614;5.530;2024-02-21T05:27:19;15.65;;;8.52;;
59788;SDS011;47353;51.614;5.530;2024-02-21T05:29:44;19.90;;;9.25;;
59788;SDS011;47353;51.614;5.530;2024-02-21T05:32:10;14.23;;;8.57;;
59788;SDS011;47353;51.614;5.530;2024-02-21T05:34:35;18.08;;;9.00;;
59788;SDS011;47353;51.614;5.530;2024-02-21T05:37:01;17.83;;;8.52;;
59788;SDS011;47353;51.614;5.530;2024-02-21T05:39:26;20.40;;;8.55;;
59788;SDS011;47353;51.614;5.530;2024-02-21T05:41:54;17.27;;;9.23;;
59788;SDS011;47353;51.614;5.530;2024-02-21T05:44:19;18.00;;;9.60;;
59788;SDS011;47353;51.614;5.530;2024-02-21T05:46:44;16.83;;;8.98;;
59788;SDS011;47353;51.614;5.530;2024-02-21T05:49:11;21.40;;;9.32;;
59788;SDS011;47353;51.614;5.530;2024-02-21T05:51:36;16.65;;;8.60;;
59788;SDS011;47353;51.614;5.530;2024-02-21T05:54:02;16.80;;;9.30;;
59788;SDS011;47353;51.614;5.530;2024-02-21T05:56:27;18.85;;;8.75;;
59788;SDS011;47353;51.614;5.530;2024-02-21T05:58:53;19.80;;;8.40;;
59788;SDS011;47353;51.614;5.530;2024-02-21T06:01:18;19.38;;;8.30;;
59788;SDS011;47353;51.614;5.530;2024-02-21T06:03:44;18.00;;;8.48;;
59788;SDS011;47353;51.614;5.530;2024-02-21T06:06:10;16.58;;;8.25;;
59788;SDS011;47353;51.614;5.530;2024-02-21T06:08:35;16.35;;;8.02;;
59788;SDS011;47353;51.614;5.530;2024-02-21T06:11:01;16.02;;;8.23;;
59788;SDS011;47353;51.614;5.530;2024-02-21T06:13:26;17.15;;;7.93;;
59788;SDS011;47353;51.614;5.530;2024-02-21T06:15:52;17.58;;;8.60;;
59788;SDS011;47353;51.614;5.530;2024-02-21T06:18:18;15.38;;;7.53;;
59788;SDS011;47353;51.614;5.530;2024-02-21T06:20:43;15.98;;;7.13;;
59788;SDS011;47353;51.614;5.530;2024-02-21T06:23:09;18.33;;;7.82;;
59788;SDS011;47353;51.614;5.530;2024-02-21T06:25:35;15.02;;;7.35;;
59788;SDS011;47353;51.614;5.530;2024-02-21T06:28:00;16.88;;;8.20;;
59788;SDS011;47353;51.614;5.530;2024-02-21T06:30:26;16.05;;;7.60;;
59788;SDS011;47353;51.614;5.530;2024-02-21T06:32:52;17.25;;;7.60;;
59788;SDS011;47353;51.614;5.530;2024-02-21T06:35:17;12.77;;;7.80;;
59788;SDS011;47353;51.614;5.530;2024-02-21T06:37:43;17.48;;;8.23;;
59788;SDS011;47353;51.614;5.530;2024-02-21T06:40:10;17.50;;;7.38;;
59788;SDS011;47353;51.614;5.530;2024-02-21T06:42:35;17.00;;;8.18;;
59788;SDS011;47353;51.614;5.530;2024-02-21T06:45:01;15.07;;;7.80;;
59788;SDS011;47353;51.614;5.530;2024-02-21T06:47:26;18.60;;;8.40;;
59788;SDS011;47353;51.614;5.530;2024-02-21T06:49:52;16.17;;;7.97;;
59788;SDS011;47353;51.614;5.530;2024-02-21T06:52:17;16.50;;;8.57;;
59788;SDS011;47353;51.614;5.530;2024-02-21T06:54:45;16.75;;;8.50;;
59788;SDS011;47353;51.614;5.530;2024-02-21T06:57:13;17.15;;;8.68;;
59788;SDS011;47353;51.614;5.530;2024-02-21T06:59:40;19.75;;;8.60;;
59788;SDS011;47353;51.614;5.530;2024-02-21T07:02:06;16.88;;;9.05;;
59788;SDS011;47353;51.614;5.530;2024-02-21T07:04:32;15.25;;;8.00;;
59788;SDS011;47353;51.614;5.530;2024-02-21T07:06:57;16.92;;;8.73;;
59788;SDS011;47353;51.614;5.530;2024-02-21T07:09:22;17.73;;;8.95;;
59788;SDS011;47353;51.614;5.530;2024-02-21T07:11:48;16.80;;;9.23;;
59788;SDS011;47353;51.614;5.530;2024-02-21T07:14:14;18.95;;;9.50;;
59788;SDS011;47353;51.614;5.530;2024-02-21T07:16:40;15.63;;;8.18;;
59788;SDS011;47353;51.614;5.530;2024-02-21T07:19:06;18.05;;;8.65;;
59788;SDS011;47353;51.614;5.530;2024-02-21T07:21:31;15.82;;;8.57;;
59788;SDS011;47353;51.614;5.530;2024-02-21T07:23:57;15.98;;;8.45;;
59788;SDS011;47353;51.614;5.530;2024-02-21T07:26:22;17.42;;;8.38;;
59788;SDS011;47353;51.614;5.530;2024-02-21T07:28:48;14.35;;;8.90;;
59788;SDS011;47353;51.614;5.530;2024-02-21T07:31:13;16.05;;;8.98;;
59788;SDS011;47353;51.614;5.530;2024-02-21T07:33:39;16.45;;;8.80;;
59788;SDS011;47353;51.614;5.530;2024-02-21T07:36:07;16.65;;;9.30;;
59788;SDS011;47353;51.614;5.530;2024-02-21T07:38:35;16.17;;;8.38;;
59788;SDS011;47353;51.614;5.530;2024-02-21T07:41:00;15.00;;;8.73;;
59788;SDS011;47353;51.614;5.530;2024-02-21T07:43:26;17.85;;;9.35;;
59788;SDS011;47353;51.614;5.530;2024-02-21T07:45:51;18.48;;;9.48;;
59788;SDS011;47353;51.614;5.530;2024-02-21T07:48:18;16.17;;;9.15;;
59788;SDS011;47353;51.614;5.530;2024-02-21T07:50:44;18.42;;;9.90;;
59788;SDS011;47353;51.614;5.530;2024-02-21T07:53:09;19.05;;;10.25;;
59788;SDS011;47353;51.614;5.530;2024-02-21T07:55:35;15.93;;;8.93;;
59788;SDS011;47353;51.614;5.530;2024-02-21T07:58:00;16.33;;;9.48;;
59788;SDS011;47353;51.614;5.530;2024-02-21T08:00:26;20.02;;;9.70;;
59788;SDS011;47353;51.614;5.530;2024-02-21T08:02:51;19.88;;;9.82;;
59788;SDS011;47353;51.614;5.530;2024-02-21T08:05:17;16.33;;;9.05;;
59788;SDS011;47353;51.614;5.530;2024-02-21T08:07:42;16.92;;;9.23;;
59788;SDS011;47353;51.614;5.530;2024-02-21T08:10:08;18.88;;;9.68;;
59788;SDS011;47353;51.614;5.530;2024-02-21T08:12:33;16.08;;;9.32;;
59788;SDS011;47353;51.614;5.530;2024-02-21T08:14:59;18.58;;;9.10;;
59788;SDS011;47353;51.614;5.530;2024-02-21T08:17:25;19.40;;;8.43;;
59788;SDS011;47353;51.614;5.530;2024-02-21T08:19:51;17.13;;;9.38;;
59788;SDS011;47353;51.614;5.530;2024-02-21T08:22:16;16.15;;;8.70;;
59788;SDS011;47353;51.614;5.530;2024-02-21T08:24:42;16.15;;;8.55;;
59788;SDS011;47353;51.614;5.530;2024-02-21T08:27:07;15.10;;;8.80;;
59788;SDS011;47353;51.614;5.530;2024-02-21T08:29:32;15.25;;;8.70;;
59788;SDS011;47353;51.614;5.530;2024-02-21T08:31:58;12.20;;;7.80;;
59788;SDS011;47353;51.614;5.530;2024-02-21T08:34:23;13.38;;;7.90;;
59788;SDS011;47353;51.614;5.530;2024-02-21T08:36:49;14.25;;;7.88;;
59788;SDS011;47353;51.614;5.530;2024-02-21T08:39:15;14.45;;;8.00;;
59788;SDS011;47353;51.614;5.530;2024-02-21T08:41:41;12.30;;;6.75;;
59788;SDS011;47353;51.614;5.530;2024-02-21T08:44:07;11.38;;;7.22;;
59788;SDS011;47353;51.614;5.530;2024-02-21T08:46:33;11.90;;;7.20;;
59788;SDS011;47353;51.614;5.530;2024-02-21T08:48:58;11.80;;;6.90;;
59788;SDS011;47353;51.614;5.530;2024-02-21T08:51:24;10.80;;;6.30;;
59788;SDS011;47353;51.614;5.530;2024-02-21T08:53:49;10.90;;;7.00;;
59788;SDS011;47353;51.614;5.530;2024-02-21T08:56:15;11.40;;;5.88;;
59788;SDS011;47353;51.614;5.530;2024-02-21T08:58:41;9.70;;;5.95;;
59788;SDS011;47353;51.614;5.530;2024-02-21T09:01:06;10.95;;;6.05;;
59788;SDS011;47353;51.614;5.530;2024-02-21T09:03:36;10.15;;;6.15;;
59788;SDS011;47353;51.614;5.530;2024-02-21T09:06:02;9.50;;;6.30;;
59788;SDS011;47353;51.614;5.530;2024-02-21T09:08:27;11.95;;;6.53;;
59788;SDS011;47353;51.614;5.530;2024-02-21T09:10:53;9.90;;;6.50;;
59788;SDS011;47353;51.614;5.530;2024-02-21T09:13:18;11.70;;;6.75;;
59788;SDS011;47353;51.614;5.530;2024-02-21T09:15:44;11.60;;;6.75;;
59788;SDS011;47353;51.614;5.530;2024-02-21T09:18:09;9.85;;;6.97;;
59788;SDS011;47353;51.614;5.530;2024-02-21T09:20:35;10.90;;;7.82;;
59788;SDS011;47353;51.614;5.530;2024-02-21T09:23:00;10.73;;;7.15;;
59788;SDS011;47353;51.614;5.530;2024-02-21T09:25:26;12.55;;;7.20;;
59788;SDS011;47353;51.614;5.530;2024-02-21T09:27:53;10.95;;;7.00;;
59788;SDS011;47353;51.614;5.530;2024-02-21T09:30:19;10.70;;;7.30;;
59788;SDS011;47353;51.614;5.530;2024-02-21T09:32:45;9.50;;;7.20;;
59788;SDS011;47353;51.614;5.530;2024-02-21T09:35:11;10.70;;;7.82;;
59788;SDS011;47353;51.614;5.530;2024-02-21T09:37:37;9.57;;;7.20;;
59788;SDS011;47353;51.614;5.530;2024-02-21T09:40:03;11.15;;;7.97;;
59788;SDS011;47353;51.614;5.530;2024-02-21T09:45:26;11.80;;;8.23;;
59788;SDS011;47353;51.614;5.530;2024-02-21T09:50:47;10.40;;;8.43;;
59788;SDS011;47353;51.614;5.530;2024-02-21T09:53:14;13.23;;;8.68;;
59788;SDS011;47353;51.614;5.530;2024-02-21T09:55:40;13.13;;;9.05;;
59788;SDS011;47353;51.614;5.530;2024-02-21T09:58:08;12.05;;;8.70;;
59788;SDS011;47353;51.614;5.530;2024-02-21T10:00:35;14.00;;;9.75;;
59788;SDS011;47353;51.614;5.530;2024-02-21T10:03:01;16.23;;;10.15;;
59788;SDS011;47353;51.614;5.530;2024-02-21T10:05:26;13.68;;;9.20;;
59788;SDS011;47353;51.614;5.530;2024-02-21T10:07:52;17.23;;;9.70;;
59788;SDS011;47353;51.614;5.530;2024-02-21T10:10:19;13.90;;;9.93;;
59788;SDS011;47353;51.614;5.530;2024-02-21T10:12:50;14.70;;;9.50;;
59788;SDS011;47353;51.614;5.530;2024-02-21T10:15:19;12.70;;;9.30;;
59788;SDS011;47353;51.614;5.530;2024-02-21T10:17:47;15.07;;;9.07;;
59788;SDS011;47353;51.614;5.530;2024-02-21T10:20:13;16.30;;;9.73;;
59788;SDS011;47353;51.614;5.530;2024-02-21T10:22:40;13.32;;;7.85;;
59788;SDS011;47353;51.614;5.530;2024-02-21T10:27:34;10.88;;;7.70;;
59788;SDS011;47353;51.614;5.530;2024-02-21T10:30:00;11.52;;;7.00;;
59788;SDS011;47353;51.614;5.530;2024-02-21T10:32:25;10.70;;;7.13;;
59788;SDS011;47353;51.614;5.530;2024-02-21T10:35:00;11.00;;;6.32;;
59788;SDS011;47353;51.614;5.530;2024-02-21T10:37:26;11.70;;;6.78;;
59788;SDS011;47353;51.614;5.530;2024-02-21T10:39:53;12.90;;;6.60;;
59788;SDS011;47353;51.614;5.530;2024-02-21T10:42:19;11.60;;;6.97;;
59788;SDS011;47353;51.614;5.530;2024-02-21T10:44:46;9.75;;;5.80;;
59788;SDS011;47353;51.614;5.530;2024-02-21T10:47:17;10.48;;;6.32;;
59788;SDS011;47353;51.614;5.530;2024-02-21T10:49:46;8.38;;;5.88;;
59788;SDS011;47353;51.614;5.530;2024-02-21T10:55:28;11.50;;;6.03;;
59788;SDS011;47353;51.614;5.530;2024-02-21T10:58:04;10.43;;;6.15;;
59788;SDS011;47353;51.614;5.530;2024-02-21T11:00:30;10.32;;;5.70;;
59788;SDS011;47353;51.614;5.530;2024-02-21T11:02:59;9.35;;;5.85;;
59788;SDS011;47353;51.614;5.530;2024-02-21T11:05:25;8.35;;;5.40;;
59788;SDS011;47353;51.614;5.530;2024-02-21T11:07:52;8.10;;;5.25;;
59788;SDS011;47353;51.614;5.530;2024-02-21T11:10:25;8.23;;;5.57;;
59788;SDS011;47353;51.614;5.530;2024-02-21T11:13:05;8.02;;;5.03;;
59788;SDS011;47353;51.614;5.530;2024-02-21T11:15:39;11.32;;;5.30;;
59788;SDS011;47353;51.614;5.530;2024-02-21T11:18:04;8.68;;;5.10;;
59788;SDS011;47353;51.614;5.530;2024-02-21T11:20:36;9.95;;;5.40;;
59788;SDS011;47353;51.614;5.530;2024-02-21T11:23:03;10.38;;;5.88;;
59788;SDS011;47353;51.614;5.530;2024-02-21T11:25:29;8.40;;;5.10;;
59788;SDS011;47353;51.614;5.530;2024-02-21T11:28:04;10.18;;;5.40;;
59788;SDS011;47353;51.614;5.530;2024-02-21T11:30:32;8.95;;;5.30;;
59788;SDS011;47353;51.614;5.530;2024-02-21T11:33:02;9.65;;;5.10;;
59788;SDS011;47353;51.614;5.530;2024-02-21T11:35:35;10.10;;;5.43;;
59788;SDS011;47353;51.614;5.530;2024-02-21T11:38:08;9.60;;;5.13;;
59788;SDS011;47353;51.614;5.530;2024-02-21T11:40:35;10.40;;;5.38;;
59788;SDS011;47353;51.614;5.530;2024-02-21T11:43:03;8.48;;;5.00;;
59788;SDS011;47353;51.614;5.530;2024-02-21T11:45:29;10.85;;;5.15;;
59788;SDS011;47353;51.614;5.530;2024-02-21T11:47:54;7.18;;;4.80;;
59788;SDS011;47353;51.614;5.530;2024-02-21T11:50:20;9.57;;;5.47;;
59788;SDS011;47353;51.614;5.530;2024-02-21T11:52:47;8.60;;;5.18;;
59788;SDS011;47353;51.614;5.530;2024-02-21T11:55:13;7.47;;;5.05;;
59788;SDS011;47353;51.614;5.530;2024-02-21T11:57:38;11.95;;;5.57;;
59788;SDS011;47353;51.614;5.530;2024-02-21T12:00:17;6.72;;;4.80;;
59788;SDS011;47353;51.614;5.530;2024-02-21T12:02:47;9.98;;;5.45;;
59788;SDS011;47353;51.614;5.530;2024-02-21T12:05:13;8.55;;;5.10;;
59788;SDS011;47353;51.614;5.530;2024-02-21T12:07:39;9.30;;;4.90;;
59788;SDS011;47353;51.614;5.530;2024-02-21T12:10:09;8.32;;;5.15;;
59788;SDS011;47353;51.614;5.530;2024-02-21T12:12:36;7.20;;;4.90;;
59788;SDS011;47353;51.614;5.530;2024-02-21T12:15:03;9.85;;;4.85;;
59788;SDS011;47353;51.614;5.530;2024-02-21T12:17:30;8.23;;;5.07;;
59788;SDS011;47353;51.614;5.530;2024-02-21T12:19:56;10.50;;;5.13;;
59788;SDS011;47353;51.614;5.530;2024-02-21T12:22:22;9.02;;;4.72;;
59788;SDS011;47353;51.614;5.530;2024-02-21T12:24:47;8.40;;;4.78;;
59788;SDS011;47353;51.614;5.530;2024-02-21T12:27:13;9.10;;;4.85;;
59788;SDS011;47353;51.614;5.530;2024-02-21T12:29:38;11.63;;;5.22;;
59788;SDS011;47353;51.614;5.530;2024-02-21T12:32:04;7.03;;;4.60;;
59788;SDS011;47353;51.614;5.530;2024-02-21T12:34:29;10.20;;;5.18;;
59788;SDS011;47353;51.614;5.530;2024-02-21T12:36:57;8.95;;;5.18;;
59788;SDS011;47353;51.614;5.530;2024-02-21T12:39:23;7.90;;;4.78;;
59788;SDS011;47353;51.614;5.530;2024-02-21T12:41:49;10.65;;;5.03;;
59788;SDS011;47353;51.614;5.530;2024-02-21T12:44:14;10.93;;;5.25;;
59788;SDS011;47353;51.614;5.530;2024-02-21T12:46:42;9.10;;;4.78;;
59788;SDS011;47353;51.614;5.530;2024-02-21T12:49:07;9.75;;;5.07;;
59788;SDS011;47353;51.614;5.530;2024-02-21T12:51:33;8.65;;;4.68;;
59788;SDS011;47353;51.614;5.530;2024-02-21T12:53:59;8.88;;;4.22;;
59788;SDS011;47353;51.614;5.530;2024-02-21T12:56:25;8.95;;;5.30;;
59788;SDS011;47353;51.614;5.530;2024-02-21T12:58:52;10.15;;;4.72;;
59788;SDS011;47353;51.614;5.530;2024-02-21T13:01:18;9.02;;;4.47;;
59788;SDS011;47353;51.614;5.530;2024-02-21T13:03:43;8.38;;;4.60;;
59788;SDS011;47353;51.614;5.530;2024-02-21T13:06:09;9.15;;;4.63;;
59788;SDS011;47353;51.614;5.530;2024-02-21T13:08:37;10.98;;;5.10;;
59788;SDS011;47353;51.614;5.530;2024-02-21T13:11:03;8.45;;;4.38;;
59788;SDS011;47353;51.614;5.530;2024-02-21T13:13:29;11.57;;;4.72;;
59788;SDS011;47353;51.614;5.530;2024-02-21T13:15:54;9.70;;;4.60;;
59788;SDS011;47353;51.614;5.530;2024-02-21T13:18:20;8.50;;;4.60;;
59788;SDS011;47353;51.614;5.530;2024-02-21T13:20:45;7.63;;;4.38;;
59788;SDS011;47353;51.614;5.530;2024-02-21T13:23:10;10.43;;;4.13;;
59788;SDS011;47353;51.614;5.530;2024-02-21T13:25:36;7.82;;;4.05;;
59788;SDS011;47353;51.614;5.530;2024-02-21T13:28:01;9.95;;;4.65;;
59788;SDS011;47353;51.614;5.530;2024-02-21T13:30:28;7.45;;;4.22;;
59788;SDS011;47353;51.614;5.530;2024-02-21T13:32:54;8.38;;;4.53;;
59788;SDS011;47353;51.614;5.530;2024-02-21T13:35:22;9.52;;;4.10;;
59788;SDS011;47353;51.614;5.530;2024-02-21T13:37:47;8.32;;;3.95;;
59788;SDS011;47353;51.614;5.530;2024-02-21T13:40:14;9.38;;;3.97;;
59788;SDS011;47353;51.614;5.530;2024-02-21T13:42:39;8.23;;;3.60;;
59788;SDS011;47353;51.614;5.530;2024-02-21T13:45:05;6.90;;;3.75;;
59788;SDS011;47353;51.614;5.530;2024-02-21T13:47:32;10.02;;;3.95;;
59788;SDS011;47353;51.614;5.530;2024-02-21T13:50:04;5.88;;;3.45;;
59788;SDS011;47353;51.614;5.530;2024-02-21T13:52:30;5.45;;;3.47;;
59788;SDS011;47353;51.614;5.530;2024-02-21T13:54:56;7.55;;;3.03;;
59788;SDS011;47353;51.614;5.530;2024-02-21T13:57:22;6.13;;;3.20;;
59788;SDS011;47353;51.614;5.530;2024-02-21T13:59:47;6.20;;;3.30;;
59788;SDS011;47353;51.614;5.530;2024-02-21T14:02:13;6.63;;;3.58;;
59788;SDS011;47353;51.614;5.530;2024-02-21T14:04:38;6.22;;;3.25;;
59788;SDS011;47353;51.614;5.530;2024-02-21T14:07:04;7.40;;;3.22;;
59788;SDS011;47353;51.614;5.530;2024-02-21T14:09:29;5.22;;;3.10;;
59788;SDS011;47353;51.614;5.530;2024-02-21T14:11:55;6.55;;;3.30;;
59788;SDS011;47353;51.614;5.530;2024-02-21T14:14:20;7.15;;;3.30;;
59788;SDS011;47353;51.614;5.530;2024-02-21T14:16:46;5.38;;;3.13;;
59788;SDS011;47353;51.614;5.530;2024-02-21T14:19:13;8.38;;;3.72;;
59788;SDS011;47353;51.614;5.530;2024-02-21T14:21:38;6.68;;;3.28;;
59788;SDS011;47353;51.614;5.530;2024-02-21T14:24:04;7.90;;;2.90;;
59788;SDS011;47353;51.614;5.530;2024-02-21T14:26:30;5.30;;;3.28;;
59788;SDS011;47353;51.614;5.530;2024-02-21T14:28:56;4.57;;;2.88;;
59788;SDS011;47353;51.614;5.530;2024-02-21T14:31:22;8.73;;;3.35;;
59788;SDS011;47353;51.614;5.530;2024-02-21T14:33:48;7.57;;;3.72;;
59788;SDS011;47353;51.614;5.530;2024-02-21T14:36:13;6.57;;;3.20;;
59788;SDS011;47353;51.614;5.530;2024-02-21T14:38:40;6.72;;;3.67;;
59788;SDS011;47353;51.614;5.530;2024-02-21T14:41:06;6.65;;;3.28;;